SVA1113 OEDF-OEJN
Flight info
| Callsign | SVA1113 |
|---|---|
| Flight time | N/A |
| Altitude | 36000 |
| Route | EMUSA Q212 GETOT J852 KSA G782 RGB M309 VEMEM |
| Aircraft | A21N/M-SDE2E3FGHIRWXY/LB1 |
Departure
| Time | N/A |
|---|---|
| Airport | King Fahd International Airport (OEDF) |
Arrival
| Time | 2026-04-30 19:04 |
|---|---|
| Airport | King Abdulaziz International Airport (OEJN) |
| Time | Latitude | Longitude | Altitude | Speed | Heading |
|---|---|---|---|---|---|
| 2026-04-30 17:39 | 24.60889 | 46.03396 | 35484 ft | 397 kts | 238° |
| 2026-04-30 17:41 | 24.48883 | 45.83046 | 35946 ft | 398 kts | 238° |
| 2026-04-30 17:42 | 24.45884 | 45.77934 | 35940 ft | 398 kts | 240° |
| 2026-04-30 17:43 | 24.39659 | 45.64343 | 35936 ft | 399 kts | 244° |
| 2026-04-30 17:44 | 24.32346 | 45.47876 | 35940 ft | 403 kts | 244° |
| 2026-04-30 17:47 | 24.21304 | 45.23197 | 35949 ft | 399 kts | 244° |
| 2026-04-30 17:48 | 24.12845 | 45.04382 | 35961 ft | 390 kts | 244° |
| 2026-04-30 17:50 | 24.03227 | 44.83094 | 35969 ft | 390 kts | 244° |
| 2026-04-30 17:52 | 23.95992 | 44.67143 | 35971 ft | 393 kts | 244° |
| 2026-04-30 17:54 | 23.86525 | 44.42419 | 35965 ft | 393 kts | 249° |
| 2026-04-30 17:56 | 23.78676 | 44.20163 | 35955 ft | 392 kts | 249° |
| 2026-04-30 17:58 | 23.72771 | 44.03512 | 35949 ft | 393 kts | 248° |
| 2026-04-30 18:00 | 23.64836 | 43.81236 | 35961 ft | 393 kts | 248° |
| 2026-04-30 18:01 | 23.59860 | 43.67327 | 35959 ft | 396 kts | 248° |
| 2026-04-30 18:02 | 23.53847 | 43.50577 | 35970 ft | 395 kts | 248° |
| 2026-04-30 18:04 | 23.48155 | 43.34782 | 35978 ft | 396 kts | 248° |
| 2026-04-30 18:06 | 23.40073 | 43.12458 | 35979 ft | 395 kts | 248° |
| 2026-04-30 18:08 | 23.33008 | 42.93054 | 35982 ft | 394 kts | 248° |
| 2026-04-30 18:10 | 23.24888 | 42.70862 | 35981 ft | 397 kts | 248° |
| 2026-04-30 18:11 | 23.17728 | 42.51384 | 35980 ft | 395 kts | 248° |
| 2026-04-30 18:13 | 23.12632 | 42.37574 | 35979 ft | 395 kts | 248° |
| 2026-04-30 18:14 | 23.07663 | 42.23702 | 35976 ft | 394 kts | 249° |
| 2026-04-30 18:15 | 23.01718 | 42.07071 | 35982 ft | 395 kts | 248° |
| 2026-04-30 18:16 | 22.97729 | 41.95959 | 35986 ft | 396 kts | 248° |
| 2026-04-30 18:17 | 22.95729 | 41.90398 | 35986 ft | 395 kts | 248° |
| 2026-04-30 18:18 | 22.92724 | 41.82054 | 35992 ft | 395 kts | 248° |
| 2026-04-30 18:18 | 22.90731 | 41.76527 | 35983 ft | 395 kts | 248° |
| 2026-04-30 18:19 | 22.88712 | 41.70937 | 35991 ft | 396 kts | 248° |
| 2026-04-30 18:19 | 22.86714 | 41.65412 | 36001 ft | 396 kts | 248° |
| 2026-04-30 18:20 | 22.84703 | 41.59857 | 36004 ft | 396 kts | 248° |
| 2026-04-30 18:20 | 22.82689 | 41.54303 | 36015 ft | 395 kts | 248° |
| 2026-04-30 18:21 | 22.80685 | 41.48780 | 36013 ft | 394 kts | 248° |
| 2026-04-30 18:21 | 22.78679 | 41.43263 | 36014 ft | 393 kts | 248° |
| 2026-04-30 18:22 | 22.76667 | 41.37730 | 36017 ft | 395 kts | 248° |
| 2026-04-30 18:22 | 22.73648 | 41.29450 | 36017 ft | 395 kts | 248° |
| 2026-04-30 18:23 | 22.71629 | 41.23923 | 36023 ft | 394 kts | 248° |
| 2026-04-30 18:23 | 22.69606 | 41.18395 | 36024 ft | 394 kts | 248° |
| 2026-04-30 18:24 | 22.66571 | 41.10116 | 36030 ft | 394 kts | 248° |
| 2026-04-30 18:25 | 22.64549 | 41.04610 | 36014 ft | 393 kts | 248° |
| 2026-04-30 18:25 | 22.61504 | 40.96329 | 36031 ft | 395 kts | 248° |
| 2026-04-30 18:26 | 22.58451 | 40.88046 | 36032 ft | 395 kts | 248° |
| 2026-04-30 18:27 | 22.55398 | 40.79774 | 36037 ft | 394 kts | 248° |
| 2026-04-30 18:28 | 22.52356 | 40.71548 | 36042 ft | 394 kts | 248° |
| 2026-04-30 18:28 | 22.49289 | 40.63270 | 36045 ft | 396 kts | 248° |
| 2026-04-30 18:29 | 22.45178 | 40.52199 | 36054 ft | 397 kts | 248° |
| 2026-04-30 18:30 | 22.41072 | 40.41164 | 36019 ft | 395 kts | 248° |
| 2026-04-30 18:31 | 22.40043 | 40.38405 | 35395 ft | 397 kts | 248° |
| 2026-04-30 18:31 | 22.37959 | 40.32819 | 33890 ft | 402 kts | 248° |
| 2026-04-30 18:32 | 22.35883 | 40.27261 | 32538 ft | 399 kts | 249° |
| 2026-04-30 18:32 | 22.34842 | 40.24478 | 31887 ft | 398 kts | 249° |
| 2026-04-30 18:32 | 22.32764 | 40.18925 | 30534 ft | 399 kts | 250° |
| 2026-04-30 18:33 | 22.31724 | 40.16149 | 29792 ft | 400 kts | 250° |
| 2026-04-30 18:33 | 22.29649 | 40.10614 | 28761 ft | 387 kts | 250° |
| 2026-04-30 18:33 | 22.28653 | 40.07964 | 28628 ft | 373 kts | 250° |
| 2026-04-30 18:34 | 22.27696 | 40.05419 | 28498 ft | 359 kts | 250° |
| 2026-04-30 18:34 | 22.25573 | 40.00704 | 28230 ft | 346 kts | 242° |
| 2026-04-30 18:35 | 22.22935 | 39.96335 | 28064 ft | 349 kts | 240° |
| 2026-04-30 18:35 | 22.21527 | 39.94195 | 27660 ft | 351 kts | 234° |
| 2026-04-30 18:35 | 22.19770 | 39.92343 | 27207 ft | 356 kts | 221° |
| 2026-04-30 18:36 | 22.15207 | 39.90270 | 26364 ft | 369 kts | 193° |
| 2026-04-30 18:36 | 22.12587 | 39.90255 | 25926 ft | 376 kts | 177° |
| 2026-04-30 18:36 | 22.07564 | 39.91932 | 24978 ft | 380 kts | 169° |
| 2026-04-30 18:37 | 22.05016 | 39.92660 | 24550 ft | 377 kts | 171° |
| 2026-04-30 18:37 | 22.02463 | 39.93311 | 24100 ft | 377 kts | 172° |
| 2026-04-30 18:37 | 21.99907 | 39.93933 | 23651 ft | 376 kts | 173° |
| 2026-04-30 18:37 | 21.97332 | 39.94226 | 23156 ft | 370 kts | 184° |
| 2026-04-30 18:38 | 21.94804 | 39.94043 | 22680 ft | 359 kts | 198° |
| 2026-04-30 18:38 | 21.92533 | 39.93081 | 22264 ft | 344 kts | 218° |
| 2026-04-30 18:38 | 21.90795 | 39.91401 | 21853 ft | 332 kts | 237° |
| 2026-04-30 18:38 | 21.89732 | 39.89253 | 21449 ft | 322 kts | 255° |
| 2026-04-30 18:39 | 21.89397 | 39.86904 | 21060 ft | 316 kts | 272° |
| 2026-04-30 18:39 | 21.89592 | 39.84564 | 20669 ft | 312 kts | 277° |
| 2026-04-30 18:39 | 21.89911 | 39.82260 | 20294 ft | 310 kts | 278° |
| 2026-04-30 18:39 | 21.90240 | 39.79978 | 19929 ft | 307 kts | 278° |
| 2026-04-30 18:40 | 21.90560 | 39.77714 | 19550 ft | 305 kts | 277° |
| 2026-04-30 18:40 | 21.90868 | 39.75483 | 19154 ft | 303 kts | 277° |
| 2026-04-30 18:40 | 21.91174 | 39.73236 | 18781 ft | 302 kts | 277° |
| 2026-04-30 18:40 | 21.91475 | 39.71001 | 18398 ft | 300 kts | 276° |
| 2026-04-30 18:41 | 21.91774 | 39.68777 | 18010 ft | 299 kts | 276° |
| 2026-04-30 18:41 | 21.92067 | 39.66575 | 17602 ft | 296 kts | 276° |
| 2026-04-30 18:41 | 21.92358 | 39.64391 | 17259 ft | 293 kts | 276° |
| 2026-04-30 18:41 | 21.92647 | 39.62222 | 16892 ft | 290 kts | 276° |
| 2026-04-30 18:42 | 21.92927 | 39.60106 | 16538 ft | 288 kts | 276° |
| 2026-04-30 18:42 | 21.93488 | 39.55875 | 15826 ft | 283 kts | 276° |
| 2026-04-30 18:42 | 21.93765 | 39.53781 | 15478 ft | 281 kts | 276° |
| 2026-04-30 18:45 | 21.87208 | 39.33724 | 11526 ft | 283 kts | 245° |
| 2026-04-30 18:45 | 21.86366 | 39.31840 | 11239 ft | 276 kts | 245° |
| 2026-04-30 18:45 | 21.85538 | 39.29988 | 10874 ft | 273 kts | 245° |
| 2026-04-30 18:46 | 21.84718 | 39.28151 | 10502 ft | 271 kts | 245° |
| 2026-04-30 18:46 | 21.83899 | 39.26320 | 10135 ft | 269 kts | 245° |
| 2026-04-30 18:46 | 21.83061 | 39.24521 | 9763 ft | 268 kts | 239° |
| 2026-04-30 18:46 | 21.81797 | 39.23096 | 9405 ft | 266 kts | 211° |
| 2026-04-30 18:47 | 21.80021 | 39.22614 | 8977 ft | 269 kts | 176° |
| 2026-04-30 18:47 | 21.78203 | 39.23073 | 8570 ft | 269 kts | 163° |
| 2026-04-30 18:47 | 21.76468 | 39.23761 | 8167 ft | 269 kts | 161° |
| 2026-04-30 18:47 | 21.74692 | 39.24495 | 7736 ft | 269 kts | 161° |
| 2026-04-30 18:48 | 21.72973 | 39.25198 | 7383 ft | 267 kts | 161° |
| 2026-04-30 18:48 | 21.71242 | 39.25897 | 7042 ft | 264 kts | 162° |
| 2026-04-30 18:48 | 21.69527 | 39.26585 | 6683 ft | 262 kts | 162° |
| 2026-04-30 18:48 | 21.67827 | 39.27263 | 6399 ft | 256 kts | 161° |
| 2026-04-30 18:49 | 21.66207 | 39.27908 | 6252 ft | 242 kts | 162° |
| 2026-04-30 18:49 | 21.64633 | 39.28533 | 5846 ft | 240 kts | 162° |
| 2026-04-30 18:49 | 21.63061 | 39.29153 | 5403 ft | 241 kts | 162° |
| 2026-04-30 18:49 | 21.61484 | 39.29771 | 4961 ft | 240 kts | 162° |
| 2026-04-30 18:50 | 21.59914 | 39.30386 | 4541 ft | 239 kts | 162° |
| 2026-04-30 18:50 | 21.58346 | 39.30999 | 4069 ft | 240 kts | 162° |
| 2026-04-30 18:50 | 21.56785 | 39.31611 | 3718 ft | 238 kts | 162° |
| 2026-04-30 18:50 | 21.55253 | 39.32210 | 3389 ft | 238 kts | 162° |
| 2026-04-30 18:51 | 21.53703 | 39.32818 | 3105 ft | 236 kts | 162° |
| 2026-04-30 18:51 | 21.52160 | 39.33423 | 3039 ft | 236 kts | 161° |
| 2026-04-30 18:51 | 21.50620 | 39.34029 | 3043 ft | 235 kts | 161° |
| 2026-04-30 18:51 | 21.49082 | 39.34631 | 3046 ft | 236 kts | 160° |
| 2026-04-30 18:52 | 21.47546 | 39.35232 | 3043 ft | 234 kts | 161° |
| 2026-04-30 18:52 | 21.46013 | 39.35831 | 3049 ft | 234 kts | 161° |
| 2026-04-30 18:52 | 21.45003 | 39.36226 | 3048 ft | 234 kts | 161° |
| 2026-04-30 18:52 | 21.43474 | 39.36825 | 3052 ft | 234 kts | 161° |
| 2026-04-30 18:53 | 21.41943 | 39.37426 | 3052 ft | 235 kts | 161° |
| 2026-04-30 18:53 | 21.40413 | 39.38027 | 3061 ft | 234 kts | 161° |
| 2026-04-30 18:53 | 21.38881 | 39.38628 | 3057 ft | 233 kts | 161° |
| 2026-04-30 18:53 | 21.37349 | 39.39208 | 3061 ft | 234 kts | 166° |
| 2026-04-30 18:54 | 21.35756 | 39.39330 | 3057 ft | 229 kts | 195° |
| 2026-04-30 18:54 | 21.34398 | 39.38541 | 3066 ft | 222 kts | 230° |
| 2026-04-30 18:54 | 21.33619 | 39.37163 | 3072 ft | 219 kts | 249° |
| 2026-04-30 18:54 | 21.33071 | 39.35635 | 3066 ft | 220 kts | 252° |
| 2026-04-30 18:55 | 21.32636 | 39.34068 | 3061 ft | 218 kts | 264° |
| 2026-04-30 18:55 | 21.33588 | 39.31206 | 3065 ft | 212 kts | 321° |
| 2026-04-30 18:55 | 21.34895 | 39.30460 | 3057 ft | 215 kts | 336° |
| 2026-04-30 18:56 | 21.37754 | 39.29420 | 3050 ft | 217 kts | 340° |
| 2026-04-30 18:56 | 21.39184 | 39.28893 | 3048 ft | 217 kts | 339° |
| 2026-04-30 18:56 | 21.40602 | 39.28349 | 3040 ft | 213 kts | 338° |
| 2026-04-30 18:57 | 21.43228 | 39.27322 | 3055 ft | 195 kts | 338° |
| 2026-04-30 18:57 | 21.44500 | 39.26815 | 3041 ft | 193 kts | 338° |
| 2026-04-30 18:57 | 21.45701 | 39.26335 | 3031 ft | 182 kts | 338° |
| 2026-04-30 18:58 | 21.48063 | 39.25392 | 3030 ft | 181 kts | 338° |
| 2026-04-30 18:58 | 21.49228 | 39.24931 | 3041 ft | 172 kts | 338° |
| 2026-04-30 18:58 | 21.50324 | 39.24499 | 3049 ft | 161 kts | 338° |
| 2026-04-30 18:59 | 21.52245 | 39.23747 | 2965 ft | 141 kts | 338° |
| 2026-04-30 19:00 | 21.54993 | 39.22659 | 2385 ft | 140 kts | 339° |
| 2026-04-30 19:00 | 21.55903 | 39.22299 | 2219 ft | 139 kts | 339° |
| 2026-04-30 19:00 | 21.57712 | 39.21584 | 1844 ft | 138 kts | 340° |
| 2026-04-30 19:01 | 21.59506 | 39.20875 | 1488 ft | 137 kts | 341° |
| 2026-04-30 19:01 | 21.60393 | 39.20524 | 1306 ft | 137 kts | 341° |
| 2026-04-30 19:02 | 21.62169 | 39.19822 | 959 ft | 136 kts | 341° |
| 2026-04-30 19:02 | 21.63938 | 39.19122 | 643 ft | 135 kts | 339° |
| 2026-04-30 19:03 | 21.65702 | 39.18424 | 307 ft | 134 kts | 341° |
| 2026-04-30 19:03 | 21.67425 | 39.17741 | 36 ft | 123 kts | 340° |
| 2026-04-30 19:04 | 21.68363 | 39.17375 | 32 ft | 27 kts | 340° |
| 2026-04-30 19:04 | 21.68838 | 39.17142 | 31 ft | 32 kts | 309° |
| 2026-04-30 19:05 | 21.68901 | 39.16946 | 35 ft | 11 kts | 199° |
| 2026-04-30 19:05 | 21.68755 | 39.16986 | 35 ft | 14 kts | 159° |
| 2026-04-30 19:06 | 21.68548 | 39.17063 | 34 ft | 16 kts | 175° |
| 2026-04-30 19:06 | 21.68455 | 39.17024 | 35 ft | 14 kts | 178° |
| 2026-04-30 19:06 | 21.68267 | 39.17081 | 35 ft | 14 kts | 159° |
| 2026-04-30 19:07 | 21.68076 | 39.17154 | 35 ft | 15 kts | 161° |
| 2026-04-30 19:07 | 21.67982 | 39.17191 | 35 ft | 15 kts | 159° |
| 2026-04-30 19:08 | 21.67800 | 39.17263 | 36 ft | 11 kts | 160° |
| 2026-04-30 19:08 | 21.67656 | 39.17321 | 36 ft | 11 kts | 160° |
| 2026-04-30 19:08 | 21.67581 | 39.17351 | 36 ft | 12 kts | 160° |
| 2026-04-30 19:09 | 21.67425 | 39.17413 | 36 ft | 12 kts | 160° |
| 2026-04-30 19:09 | 21.67343 | 39.17445 | 36 ft | 13 kts | 160° |
| 2026-04-30 19:09 | 21.67259 | 39.17479 | 33 ft | 13 kts | 160° |
| 2026-04-30 19:10 | 21.67083 | 39.17548 | 35 ft | 14 kts | 160° |
| 2026-04-30 19:10 | 21.66938 | 39.17500 | 35 ft | 13 kts | 247° |
| 2026-04-30 19:11 | 21.66913 | 39.17442 | 35 ft | 2 kts | 222° |
| 2026-04-30 19:11 | 21.66860 | 39.17453 | 35 ft | 1 kts | 161° |
| 2026-04-30 19:11 | 21.66850 | 39.17457 | 35 ft | 2 kts | 161° |
| 2026-04-30 19:12 | 21.66840 | 39.17460 | 35 ft | 0 kts | 161° |